Terminal Aerodrome Forecast
Issued by NWS El Paso, TX

Home | Current Version | Previous Version | Text Only | Print | Product List | Glossary On
Versions: 1 2 3 4 5 6 7 8 9 10 11 12
000
FTUS44 KEPZ 182300 RRA
TAFELP
TAF
KELP 182335Z 1900/1924 25009KT P6SM VCSH FEW050 SCT080 OVC110
      TEMPO 1900/1902 6SM -TSRA BKN040CB
     FM190300 29007KT P6SM FEW025 BKN040
     FM190800 36007KT P6SM SCT040
      TEMPO 1911/1914 5SM BR SCT001 SCT040
     FM191600 30006KT P6SM FEW050=

USA.gov is the U.S. government's official web portal to all federal, state and local government web resources and services.